Prof. Albrecht Penck — Y3CH — position and weather

sailwx.info

Track history (hours):
 
Tides and Currents Weather Stations Pressure Air Temp Water Temp Dewpoint Dewpoint Depression Visibility Wind Speed Wind Dir Waves Ship Positions

Oceanographic research ship Prof. Albrecht Penck (Germany)

Detailed information on ship capabilities available from University of Delaware's Ocean Information Center.

Last reported at 2014-Oct-02 06:30 UTC. Time now 2014-Oct-02 06:39 UTC.
Position N 54°07' E 012°05'.

Length 38.6 m; beam 7.2 m; draft 3.2 m.

Type: Ship. MMSI: 211215130.

Date/timePositionNaut miles runAvg speedWind from/ knotsBaromVisibWave heightAir tempDewpointWater temp
2014-Oct-02 06:30N 54°07' E 012°05'0 0.0
2014-Oct-02 04:33N 54°07' E 012°05'0 0.0
2014-Oct-02 03:18N 54°07' E 012°05'0 0.0
2014-Oct-02 02:18N 54°07' E 012°05'0 0.0
2014-Oct-02 01:27N 54°07' E 012°05'0 0.0
2014-Oct-02 00:24N 54°07' E 012°05'0 0.0
2014-Oct-01 22:30N 54°07' E 012°05'0 0.0
2014-Oct-01 21:33N 54°07' E 012°05'0 0.0
2014-Oct-01 19:27N 54°07' E 012°05'0 0.0
2014-Oct-01 18:27N 54°07' E 012°05'0 0.0
2014-Oct-01 17:15N 54°07' E 012°05'0 0.0
2014-Oct-01 16:30N 54°07' E 012°05'0 0.0
2014-Oct-01 15:12N 54°07' E 012°05'0 0.0
2014-Oct-01 14:33N 54°07' E 012°05'0 0.0
2014-Oct-01 13:12N 54°07' E 012°05'0 0.0
2014-Oct-01 11:33N 54°07' E 012°05'0 0.0
2014-Oct-01 10:27N 54°07' E 012°05'0 0.0
2014-Oct-01 09:24N 54°07' E 012°05'0 0.0
2014-Oct-01 08:27N 54°07' E 012°05'0 0.0
2014-Oct-01 06:24N 54°07' E 012°05'0 0.0
2014-Oct-01 05:27N 54°07' E 012°05'0 0.0
2014-Oct-01 03:18N 54°07' E 012°05'0 0.0
2014-Oct-01 02:24N 54°07' E 012°05'0 0.0
2014-Oct-01 01:24N 54°07' E 012°05'0 0.0
2014-Oct-01 00:30N 54°07' E 012°05'0 0.0
2014-Sep-30 21:11N 54°07' E 012°05'0 0.0
2014-Sep-30 20:33N 54°07' E 012°05'0 0.0
2014-Sep-30 19:27N 54°07' E 012°05'0 0.0
2014-Sep-30 17:33N 54°07' E 012°05'0 0.0
2014-Sep-30 16:12N 54°07' E 012°05'0 0.0
2014-Sep-30 14:12N 54°07' E 012°05'0 0.0
2014-Sep-30 13:33N 54°07' E 012°05'0 0.0
2014-Sep-30 11:30N 54°07' E 012°05'0 0.0
2014-Sep-30 10:33N 54°07' E 012°05'0 0.0
2014-Sep-30 09:24N 54°07' E 012°05'0 0.0
2014-Sep-30 06:33N 54°07' E 012°05'0 0.0
2014-Sep-30 05:29N 54°07' E 012°05'0 0.0
2014-Sep-30 04:33N 54°07' E 012°05'5 4.7
2014-Sep-30 03:32N 54°11' E 012°05'8 7.6
2014-Sep-30 02:33N 54°18' E 012°00'8 7.8
2014-Sep-30 01:33N 54°26' E 012°02'8 8.4
2014-Sep-30 00:33N 54°32' E 012°13'6 5.9
2014-Sep-29 23:33N 54°34' E 012°22'8 7.9
2014-Sep-29 22:33N 54°34' E 012°36'8 8.6
2014-Sep-29 21:33N 54°36' E 012°50'9 8.9
2014-Sep-29 20:33N 54°39' E 013°05'8 8.5
2014-Sep-29 19:33N 54°41' E 013°19'8 8.2
2014-Sep-29 18:33N 54°39' E 013°32'9 8.8
2014-Sep-29 17:33N 54°33' E 013°43'9 8.6
2014-Sep-29 16:33N 54°25' E 013°49'9 8.7
2014-Sep-29 15:33N 54°17' E 013°56'4 3.5
2014-Sep-29 14:32N 54°13' E 013°56'0 0.4
2014-Sep-29 13:33N 54°13' E 013°55'1 0.6
2014-Sep-29 12:33N 54°13' E 013°54'0 0.5
2014-Sep-29 11:33N 54°13' E 013°55'0 0.1
2014-Sep-29 10:31N 54°13' E 013°55'1 0.6
2014-Sep-29 09:31N 54°13' E 013°56'0 0.3
2014-Sep-29 08:33N 54°13' E 013°56'0 0.2
2014-Sep-29 07:30N 54°13' E 013°56'1 0.7
2014-Sep-29 06:32N 54°13' E 013°55'1 0.3
2014-Sep-29 04:32N 54°13' E 013°54'0 0.0
2014-Sep-29 03:32N 54°13' E 013°54'0 0.0
2014-Sep-29 02:29N 54°13' E 013°54'0 0.0
2014-Sep-29 01:30N 54°13' E 013°54'0 0.0
2014-Sep-29 00:27N 54°13' E 013°54'0 0.0
2014-Sep-28 23:33N 54°13' E 013°54'0 0.0
2014-Sep-28 22:33N 54°13' E 013°54'0 0.0
2014-Sep-28 21:27N 54°13' E 013°54'0 0.0
2014-Sep-28 19:24N 54°13' E 013°54'0 0.0
2014-Sep-28 17:06N 54°13' E 013°54'0 0.5
2014-Sep-28 16:32N 54°13' E 013°54'1 0.5
2014-Sep-28 15:29N 54°14' E 013°55'1 0.6
2014-Sep-28 14:33N 54°14' E 013°56'1 0.8
2014-Sep-28 13:28N 54°14' E 013°55'0 0.4
2014-Sep-28 12:33N 54°14' E 013°55'0 0.1
2014-Sep-28 11:33N 54°14' E 013°55'1 0.6
2014-Sep-28 10:33N 54°14' E 013°56'1 1.1
2014-Sep-28 09:27N 54°14' E 013°54'0 0.4
2014-Sep-28 08:31N 54°14' E 013°55'0 0.4
2014-Sep-28 07:32N 54°14' E 013°55'0 0.4
2014-Sep-28 06:33N 54°14' E 013°56'2 1.8
2014-Sep-28 05:33N 54°16' E 013°57'1 0.5
2014-Sep-28 04:32N 54°16' E 013°57'0 0.0
2014-Sep-28 03:17N 54°16' E 013°57'0 0.0
2014-Sep-28 02:29N 54°16' E 013°57'0 0.0
2014-Sep-28 01:29N 54°16' E 013°57'0 0.0
2014-Sep-28 00:32N 54°16' E 013°57'0 0.0
2014-Sep-27 23:29N 54°16' E 013°57'0 0.0
2014-Sep-27 22:32N 54°16' E 013°57'0 0.0
2014-Sep-27 21:32N 54°16' E 013°57'0 0.0
2014-Sep-27 20:32N 54°16' E 013°57'0 0.0
2014-Sep-27 19:29N 54°16' E 013°57'4 4.4
2014-Sep-27 18:34N 54°19' E 013°53'9 8.8
2014-Sep-27 17:33N 54°27' E 013°47'10 8.9
2014-Sep-27 16:26N 54°36' E 013°38'8 9.0
2014-Sep-27 15:33N 54°41' E 013°28'9 7.3
2014-Sep-27 14:16N 54°40' E 013°12'19 9.4
2014-Sep-27 12:17N 54°35' E 012°41'7 9.2
2014-Sep-27 11:34N 54°33' E 012°30'9 8.6
2014-Sep-27 10:30N 54°29' E 012°16'9 9.6
2014-Sep-27 09:33N 54°21' E 012°08'8 8.5
2014-Sep-27 08:34N 54°13' E 012°05'6 2.8
2014-Sep-27 06:24N 54°07' E 012°05'0 0.0
2014-Sep-27 04:27N 54°07' E 012°05'0 0.0
2014-Sep-27 03:27N 54°07' E 012°05'0 0.0
2014-Sep-27 02:09N 54°07' E 012°05'0 0.0
2014-Sep-27 01:27N 54°07' E 012°05'0 0.0
2014-Sep-27 00:21N 54°07' E 012°05'0 0.0
2014-Sep-26 23:30N 54°07' E 012°05'0 0.0
2014-Sep-26 21:27N 54°07' E 012°05'0 0.0
2014-Sep-26 20:24N 54°07' E 012°05'0 0.0
2014-Sep-26 19:30N 54°07' E 012°05'0 0.0
2014-Sep-26 18:27N 54°07' E 012°05'0 0.0
2014-Sep-26 17:27N 54°07' E 012°05'0 0.0
2014-Sep-26 15:33N 54°07' E 012°05'0 0.0
2014-Sep-26 14:27N 54°07' E 012°05'0 0.0
2014-Sep-26 13:33N 54°07' E 012°05'0 0.0
2014-Sep-26 12:30N 54°07' E 012°05'0 0.0
2014-Sep-26 11:30N 54°07' E 012°05'0 0.0
2014-Sep-26 10:33N 54°07' E 012°05'0 0.0
2014-Sep-26 09:33N 54°07' E 012°05'0 0.0
2014-Sep-26 08:09N 54°07' E 012°05'0 0.0
2014-Sep-26 07:24N 54°07' E 012°05'0 0.0
2014-Sep-26 06:12N 54°07' E 012°05'0 0.0
2014-Sep-26 04:30N 54°07' E 012°05'0 0.0
2014-Sep-26 03:15N 54°07' E 012°05'0 0.0
2014-Sep-26 02:30N 54°07' E 012°05'0 0.0
2014-Sep-26 01:15N 54°07' E 012°05'0 0.0
2014-Sep-26 00:33N 54°07' E 012°05'0 0.0
2014-Sep-25 22:33N 54°07' E 012°05'0 0.0
2014-Sep-25 21:33N 54°07' E 012°05'0 0.0
2014-Sep-25 20:24N 54°07' E 012°05'0 0.0
2014-Sep-25 19:24N 54°07' E 012°05'0 0.0
2014-Sep-25 18:24N 54°07' E 012°05'0 0.0
2014-Sep-25 17:12N 54°07' E 012°05'0 0.0
2014-Sep-25 16:30N 54°07' E 012°05'0 0.0
2014-Sep-25 15:27N 54°07' E 012°05'0 0.0
2014-Sep-25 14:12N 54°07' E 012°05'0 0.0
2014-Sep-25 12:18N 54°07' E 012°05'0 0.0
2014-Sep-25 11:03N 54°07' E 012°05'0 0.0
2014-Sep-25 10:27N 54°07' E 012°05'0 0.0
2014-Sep-25 09:33N 54°07' E 012°05'0 0.0
2014-Sep-25 08:12N 54°07' E 012°05'0 0.0
2014-Sep-25 07:30N 54°07' E 012°05'0 0.0
2014-Sep-25 06:18N 54°07' E 012°05'0 0.0
2014-Sep-25 05:30N 54°07' E 012°05'0 0.0
2014-Sep-25 04:21N 54°07' E 012°05'0 0.0
2014-Sep-25 03:30N 54°07' E 012°05'0 0.0
2014-Sep-25 02:24N 54°07' E 012°05'0 0.0
2014-Sep-25 01:27N 54°07' E 012°05'0 0.0
2014-Sep-25 00:30N 54°07' E 012°05'0 0.0
2014-Sep-24 23:24N 54°07' E 012°05'0 0.0
2014-Sep-24 22:12N 54°07' E 012°05'0 0.0
2014-Sep-24 21:33N 54°07' E 012°05'0 0.0
2014-Sep-24 20:33N 54°07' E 012°05'0 0.0
2014-Sep-24 19:24N 54°07' E 012°05'0 0.0
2014-Sep-24 18:15N 54°07' E 012°05'0 0.0
2014-Sep-24 17:33N 54°07' E 012°05'0 0.0
2014-Sep-24 16:09N 54°07' E 012°05'0 0.0
2014-Sep-24 15:30N 54°07' E 012°05'0 0.0
2014-Sep-24 14:15N 54°07' E 012°05'0 0.0
2014-Sep-24 12:21N 54°07' E 012°05'0 0.0
2014-Sep-24 11:30N 54°07' E 012°05'0 0.0
2014-Sep-24 10:30N 54°07' E 012°05'0 0.0
2014-Sep-24 09:30N 54°07' E 012°05'0 0.0
2014-Sep-24 08:27N 54°07' E 012°05'0 0.0
2014-Sep-24 06:24N 54°07' E 012°05'0 0.0
2014-Sep-24 05:33N 54°07' E 012°05'0 0.0
2014-Sep-24 02:33N 54°07' E 012°05'0 0.0
2014-Sep-24 01:24N 54°07' E 012°05'0 0.0
2014-Sep-24 00:21N 54°07' E 012°05'0 0.0
2014-Sep-23 23:27N 54°07' E 012°05'0 0.0
2014-Sep-23 22:24N 54°07' E 012°05'0 0.0
2014-Sep-23 21:33N 54°07' E 012°05'0 0.0
2014-Sep-23 20:33N 54°07' E 012°05'0 0.0
2014-Sep-23 19:33N 54°07' E 012°05'0 0.0
2014-Sep-23 18:30N 54°07' E 012°05'0 0.0
2014-Sep-23 16:33N 54°07' E 012°05'0 0.0
2014-Sep-23 15:33N 54°07' E 012°05'0 0.0
2014-Sep-23 14:27N 54°07' E 012°05'0 0.0
2014-Sep-23 13:24N 54°07' E 012°05'0 0.0
2014-Sep-23 12:33N 54°07' E 012°05'0 0.0
2014-Sep-23 11:27N 54°07' E 012°05'0 0.0
2014-Sep-23 10:24N 54°07' E 012°05'0 0.0
2014-Sep-23 09:27N 54°07' E 012°05'0 0.0
2014-Sep-23 08:33N 54°07' E 012°05'0 0.0
2014-Sep-23 07:33N 54°07' E 012°05'0 0.0
2014-Sep-23 06:21N 54°07' E 012°05'0 0.0
2014-Sep-23 05:27N 54°07' E 012°05'0 0.0
2014-Sep-23 04:33N 54°07' E 012°05'0 0.0
2014-Sep-23 03:27N 54°07' E 012°05'0 0.0
2014-Sep-23 02:33N 54°07' E 012°05'0 0.0
2014-Sep-23 01:18N 54°07' E 012°05'0 0.0
2014-Sep-23 00:33N 54°07' E 012°05'0 0.0
2014-Sep-22 23:18N 54°07' E 012°05'0 0.0
2014-Sep-22 22:06N 54°07' E 012°05'0 0.0
2014-Sep-22 21:33N 54°07' E 012°05'0 0.0
2014-Sep-22 19:33N 54°07' E 012°05'0 0.0
2014-Sep-22 18:33N 54°07' E 012°05'0 0.0
2014-Sep-22 17:30N 54°07' E 012°05'0 0.0
2014-Sep-22 16:33N 54°07' E 012°05'0 0.0
2014-Sep-22 15:33N 54°07' E 012°05'0 0.0
2014-Sep-22 14:30N 54°07' E 012°05'0 0.0
2014-Sep-22 13:27N 54°07' E 012°05'0 0.0
2014-Sep-22 12:33N 54°07' E 012°05'0 0.0
2014-Sep-22 11:18N 54°07' E 012°05'0 0.0
2014-Sep-22 10:21N 54°07' E 012°05'0 0.0
2014-Sep-22 09:33N 54°07' E 012°05'0 0.0
2014-Sep-22 08:33N 54°07' E 012°05'0 0.0
2014-Sep-22 07:24N 54°07' E 012°05'  
Track history (hours):
 
Tides and Currents Weather Stations Pressure Air Temp Water Temp Dewpoint Dewpoint Depression Visibility Wind Speed Wind Dir Waves Ship Positions

Oceanographic research ship Prof. Albrecht Penck (Germany)

Detailed information on ship capabilities available from University of Delaware's Ocean Information Center.

Last reported at 2014-Oct-02 06:30 UTC. Time now 2014-Oct-02 06:39 UTC.
Position N 54°07' E 012°05'.

Length 38.6 m; beam 7.2 m; draft 3.2 m.

Type: Ship. MMSI: 211215130.

Date/timePositionNaut miles runAvg speedWind from/ knotsBaromVisibWave heightAir tempDewpointWater temp
2014-Oct-02 06:30N 54°07' E 012°05'0 0.0
2014-Oct-02 04:33N 54°07' E 012°05'0 0.0
2014-Oct-02 03:18N 54°07' E 012°05'0 0.0
2014-Oct-02 02:18N 54°07' E 012°05'0 0.0
2014-Oct-02 01:27N 54°07' E 012°05'0 0.0
2014-Oct-02 00:24N 54°07' E 012°05'0 0.0
2014-Oct-01 22:30N 54°07' E 012°05'0 0.0
2014-Oct-01 21:33N 54°07' E 012°05'0 0.0
2014-Oct-01 19:27N 54°07' E 012°05'0 0.0
2014-Oct-01 18:27N 54°07' E 012°05'0 0.0
2014-Oct-01 17:15N 54°07' E 012°05'0 0.0
2014-Oct-01 16:30N 54°07' E 012°05'0 0.0
2014-Oct-01 15:12N 54°07' E 012°05'0 0.0
2014-Oct-01 14:33N 54°07' E 012°05'0 0.0
2014-Oct-01 13:12N 54°07' E 012°05'0 0.0
2014-Oct-01 11:33N 54°07' E 012°05'0 0.0
2014-Oct-01 10:27N 54°07' E 012°05'0 0.0
2014-Oct-01 09:24N 54°07' E 012°05'0 0.0
2014-Oct-01 08:27N 54°07' E 012°05'0 0.0
2014-Oct-01 06:24N 54°07' E 012°05'0 0.0
2014-Oct-01 05:27N 54°07' E 012°05'0 0.0
2014-Oct-01 03:18N 54°07' E 012°05'0 0.0
2014-Oct-01 02:24N 54°07' E 012°05'0 0.0
2014-Oct-01 01:24N 54°07' E 012°05'0 0.0
2014-Oct-01 00:30N 54°07' E 012°05'0 0.0
2014-Sep-30 21:11N 54°07' E 012°05'0 0.0
2014-Sep-30 20:33N 54°07' E 012°05'0 0.0
2014-Sep-30 19:27N 54°07' E 012°05'0 0.0
2014-Sep-30 17:33N 54°07' E 012°05'0 0.0
2014-Sep-30 16:12N 54°07' E 012°05'0 0.0
2014-Sep-30 14:12N 54°07' E 012°05'0 0.0
2014-Sep-30 13:33N 54°07' E 012°05'0 0.0
2014-Sep-30 11:30N 54°07' E 012°05'0 0.0
2014-Sep-30 10:33N 54°07' E 012°05'0 0.0
2014-Sep-30 09:24N 54°07' E 012°05'0 0.0
2014-Sep-30 06:33N 54°07' E 012°05'0 0.0
2014-Sep-30 05:29N 54°07' E 012°05'0 0.0
2014-Sep-30 04:33N 54°07' E 012°05'5 4.7
2014-Sep-30 03:32N 54°11' E 012°05'8 7.6
2014-Sep-30 02:33N 54°18' E 012°00'8 7.8
2014-Sep-30 01:33N 54°26' E 012°02'8 8.4
2014-Sep-30 00:33N 54°32' E 012°13'6 5.9
2014-Sep-29 23:33N 54°34' E 012°22'8 7.9
2014-Sep-29 22:33N 54°34' E 012°36'8 8.6
2014-Sep-29 21:33N 54°36' E 012°50'9 8.9
2014-Sep-29 20:33N 54°39' E 013°05'8 8.5
2014-Sep-29 19:33N 54°41' E 013°19'8 8.2
2014-Sep-29 18:33N 54°39' E 013°32'9 8.8
2014-Sep-29 17:33N 54°33' E 013°43'9 8.6
2014-Sep-29 16:33N 54°25' E 013°49'9 8.7
2014-Sep-29 15:33N 54°17' E 013°56'4 3.5
2014-Sep-29 14:32N 54°13' E 013°56'0 0.4
2014-Sep-29 13:33N 54°13' E 013°55'1 0.6
2014-Sep-29 12:33N 54°13' E 013°54'0 0.5
2014-Sep-29 11:33N 54°13' E 013°55'0 0.1
2014-Sep-29 10:31N 54°13' E 013°55'1 0.6
2014-Sep-29 09:31N 54°13' E 013°56'0 0.3
2014-Sep-29 08:33N 54°13' E 013°56'0 0.2
2014-Sep-29 07:30N 54°13' E 013°56'1 0.7
2014-Sep-29 06:32N 54°13' E 013°55'1 0.3
2014-Sep-29 04:32N 54°13' E 013°54'0 0.0
2014-Sep-29 03:32N 54°13' E 013°54'0 0.0
2014-Sep-29 02:29N 54°13' E 013°54'0 0.0
2014-Sep-29 01:30N 54°13' E 013°54'0 0.0
2014-Sep-29 00:27N 54°13' E 013°54'0 0.0
2014-Sep-28 23:33N 54°13' E 013°54'0 0.0
2014-Sep-28 22:33N 54°13' E 013°54'0 0.0
2014-Sep-28 21:27N 54°13' E 013°54'0 0.0
2014-Sep-28 19:24N 54°13' E 013°54'0 0.0
2014-Sep-28 17:06N 54°13' E 013°54'0 0.5
2014-Sep-28 16:32N 54°13' E 013°54'1 0.5
2014-Sep-28 15:29N 54°14' E 013°55'1 0.6
2014-Sep-28 14:33N 54°14' E 013°56'1 0.8
2014-Sep-28 13:28N 54°14' E 013°55'0 0.4
2014-Sep-28 12:33N 54°14' E 013°55'0 0.1
2014-Sep-28 11:33N 54°14' E 013°55'1 0.6
2014-Sep-28 10:33N 54°14' E 013°56'1 1.1
2014-Sep-28 09:27N 54°14' E 013°54'0 0.4
2014-Sep-28 08:31N 54°14' E 013°55'0 0.4
2014-Sep-28 07:32N 54°14' E 013°55'0 0.4
2014-Sep-28 06:33N 54°14' E 013°56'2 1.8
2014-Sep-28 05:33N 54°16' E 013°57'1 0.5
2014-Sep-28 04:32N 54°16' E 013°57'0 0.0
2014-Sep-28 03:17N 54°16' E 013°57'0 0.0
2014-Sep-28 02:29N 54°16' E 013°57'0 0.0
2014-Sep-28 01:29N 54°16' E 013°57'0 0.0
2014-Sep-28 00:32N 54°16' E 013°57'0 0.0
2014-Sep-27 23:29N 54°16' E 013°57'0 0.0
2014-Sep-27 22:32N 54°16' E 013°57'0 0.0
2014-Sep-27 21:32N 54°16' E 013°57'0 0.0
2014-Sep-27 20:32N 54°16' E 013°57'0 0.0
2014-Sep-27 19:29N 54°16' E 013°57'4 4.4
2014-Sep-27 18:34N 54°19' E 013°53'9 8.8
2014-Sep-27 17:33N 54°27' E 013°47'10 8.9
2014-Sep-27 16:26N 54°36' E 013°38'8 9.0
2014-Sep-27 15:33N 54°41' E 013°28'9 7.3
2014-Sep-27 14:16N 54°40' E 013°12'19 9.4
2014-Sep-27 12:17N 54°35' E 012°41'7 9.2
2014-Sep-27 11:34N 54°33' E 012°30'9 8.6
2014-Sep-27 10:30N 54°29' E 012°16'9 9.6
2014-Sep-27 09:33N 54°21' E 012°08'8 8.5
2014-Sep-27 08:34N 54°13' E 012°05'6 2.8
2014-Sep-27 06:24N 54°07' E 012°05'0 0.0
2014-Sep-27 04:27N 54°07' E 012°05'0 0.0
2014-Sep-27 03:27N 54°07' E 012°05'0 0.0
2014-Sep-27 02:09N 54°07' E 012°05'0 0.0
2014-Sep-27 01:27N 54°07' E 012°05'0 0.0
2014-Sep-27 00:21N 54°07' E 012°05'0 0.0
2014-Sep-26 23:30N 54°07' E 012°05'0 0.0
2014-Sep-26 21:27N 54°07' E 012°05'0 0.0
2014-Sep-26 20:24N 54°07' E 012°05'0 0.0
2014-Sep-26 19:30N 54°07' E 012°05'0 0.0
2014-Sep-26 18:27N 54°07' E 012°05'0 0.0
2014-Sep-26 17:27N 54°07' E 012°05'0 0.0
2014-Sep-26 15:33N 54°07' E 012°05'0 0.0
2014-Sep-26 14:27N 54°07' E 012°05'0 0.0
2014-Sep-26 13:33N 54°07' E 012°05'0 0.0
2014-Sep-26 12:30N 54°07' E 012°05'0 0.0
2014-Sep-26 11:30N 54°07' E 012°05'0 0.0
2014-Sep-26 10:33N 54°07' E 012°05'0 0.0
2014-Sep-26 09:33N 54°07' E 012°05'0 0.0
2014-Sep-26 08:09N 54°07' E 012°05'0 0.0
2014-Sep-26 07:24N 54°07' E 012°05'0 0.0
2014-Sep-26 06:12N 54°07' E 012°05'0 0.0
2014-Sep-26 04:30N 54°07' E 012°05'0 0.0
2014-Sep-26 03:15N 54°07' E 012°05'0 0.0
2014-Sep-26 02:30N 54°07' E 012°05'0 0.0
2014-Sep-26 01:15N 54°07' E 012°05'0 0.0
2014-Sep-26 00:33N 54°07' E 012°05'0 0.0
2014-Sep-25 22:33N 54°07' E 012°05'0 0.0
2014-Sep-25 21:33N 54°07' E 012°05'0 0.0
2014-Sep-25 20:24N 54°07' E 012°05'0 0.0
2014-Sep-25 19:24N 54°07' E 012°05'0 0.0
2014-Sep-25 18:24N 54°07' E 012°05'0 0.0
2014-Sep-25 17:12N 54°07' E 012°05'0 0.0
2014-Sep-25 16:30N 54°07' E 012°05'0 0.0
2014-Sep-25 15:27N 54°07' E 012°05'0 0.0
2014-Sep-25 14:12N 54°07' E 012°05'0 0.0
2014-Sep-25 12:18N 54°07' E 012°05'0 0.0
2014-Sep-25 11:03N 54°07' E 012°05'0 0.0
2014-Sep-25 10:27N 54°07' E 012°05'0 0.0
2014-Sep-25 09:33N 54°07' E 012°05'0 0.0
2014-Sep-25 08:12N 54°07' E 012°05'0 0.0
2014-Sep-25 07:30N 54°07' E 012°05'0 0.0
2014-Sep-25 06:18N 54°07' E 012°05'0 0.0
2014-Sep-25 05:30N 54°07' E 012°05'0 0.0
2014-Sep-25 04:21N 54°07' E 012°05'0 0.0
2014-Sep-25 03:30N 54°07' E 012°05'0 0.0
2014-Sep-25 02:24N 54°07' E 012°05'0 0.0
2014-Sep-25 01:27N 54°07' E 012°05'0 0.0
2014-Sep-25 00:30N 54°07' E 012°05'0 0.0
2014-Sep-24 23:24N 54°07' E 012°05'0 0.0
2014-Sep-24 22:12N 54°07' E 012°05'0 0.0
2014-Sep-24 21:33N 54°07' E 012°05'0 0.0
2014-Sep-24 20:33N 54°07' E 012°05'0 0.0
2014-Sep-24 19:24N 54°07' E 012°05'0 0.0
2014-Sep-24 18:15N 54°07' E 012°05'0 0.0
2014-Sep-24 17:33N 54°07' E 012°05'0 0.0
2014-Sep-24 16:09N 54°07' E 012°05'0 0.0
2014-Sep-24 15:30N 54°07' E 012°05'0 0.0
2014-Sep-24 14:15N 54°07' E 012°05'0 0.0
2014-Sep-24 12:21N 54°07' E 012°05'0 0.0
2014-Sep-24 11:30N 54°07' E 012°05'0 0.0
2014-Sep-24 10:30N 54°07' E 012°05'0 0.0
2014-Sep-24 09:30N 54°07' E 012°05'0 0.0
2014-Sep-24 08:27N 54°07' E 012°05'0 0.0
2014-Sep-24 06:24N 54°07' E 012°05'0 0.0
2014-Sep-24 05:33N 54°07' E 012°05'0 0.0
2014-Sep-24 02:33N 54°07' E 012°05'0 0.0
2014-Sep-24 01:24N 54°07' E 012°05'0 0.0
2014-Sep-24 00:21N 54°07' E 012°05'0 0.0
2014-Sep-23 23:27N 54°07' E 012°05'0 0.0
2014-Sep-23 22:24N 54°07' E 012°05'0 0.0
2014-Sep-23 21:33N 54°07' E 012°05'0 0.0
2014-Sep-23 20:33N 54°07' E 012°05'0 0.0
2014-Sep-23 19:33N 54°07' E 012°05'0 0.0
2014-Sep-23 18:30N 54°07' E 012°05'0 0.0
2014-Sep-23 16:33N 54°07' E 012°05'0 0.0
2014-Sep-23 15:33N 54°07' E 012°05'0 0.0
2014-Sep-23 14:27N 54°07' E 012°05'0 0.0
2014-Sep-23 13:24N 54°07' E 012°05'0 0.0
2014-Sep-23 12:33N 54°07' E 012°05'0 0.0
2014-Sep-23 11:27N 54°07' E 012°05'0 0.0
2014-Sep-23 10:24N 54°07' E 012°05'0 0.0
2014-Sep-23 09:27N 54°07' E 012°05'0 0.0
2014-Sep-23 08:33N 54°07' E 012°05'0 0.0
2014-Sep-23 07:33N 54°07' E 012°05'0 0.0
2014-Sep-23 06:21N 54°07' E 012°05'0 0.0
2014-Sep-23 05:27N 54°07' E 012°05'0 0.0
2014-Sep-23 04:33N 54°07' E 012°05'0 0.0
2014-Sep-23 03:27N 54°07' E 012°05'0 0.0
2014-Sep-23 02:33N 54°07' E 012°05'0 0.0
2014-Sep-23 01:18N 54°07' E 012°05'0 0.0
2014-Sep-23 00:33N 54°07' E 012°05'0 0.0
2014-Sep-22 23:18N 54°07' E 012°05'0 0.0
2014-Sep-22 22:06N 54°07' E 012°05'0 0.0
2014-Sep-22 21:33N 54°07' E 012°05'0 0.0
2014-Sep-22 19:33N 54°07' E 012°05'0 0.0
2014-Sep-22 18:33N 54°07' E 012°05'0 0.0
2014-Sep-22 17:30N 54°07' E 012°05'0 0.0
2014-Sep-22 16:33N 54°07' E 012°05'0 0.0
2014-Sep-22 15:33N 54°07' E 012°05'0 0.0
2014-Sep-22 14:30N 54°07' E 012°05'0 0.0
2014-Sep-22 13:27N 54°07' E 012°05'0 0.0
2014-Sep-22 12:33N 54°07' E 012°05'0 0.0
2014-Sep-22 11:18N 54°07' E 012°05'0 0.0
2014-Sep-22 10:21N 54°07' E 012°05'0 0.0
2014-Sep-22 09:33N 54°07' E 012°05'0 0.0
2014-Sep-22 08:33N 54°07' E 012°05'0 0.0
2014-Sep-22 07:24N 54°07' E 012°05'  

Dump ship's entire track history